createdAt,value
2023-02-17T00:01:12.385Z,5.17
2023-02-17T00:05:01.646Z,5.20
2023-02-17T00:08:50.615Z,5.25
2023-02-17T00:12:39.566Z,5.27
2023-02-17T00:16:28.782Z,5.30
2023-02-17T00:20:18.173Z,5.30
2023-02-17T00:24:07.103Z,5.31
2023-02-17T00:27:56.219Z,5.29
2023-02-17T00:31:47.895Z,5.26
2023-02-17T00:35:37.188Z,5.26
2023-02-17T00:39:26.204Z,5.26
2023-02-17T00:43:15.276Z,5.29
2023-02-17T00:47:04.496Z,5.28
2023-02-17T01:03:03.036Z,5.18
2023-02-17T01:06:50.518Z,5.10
2023-02-17T01:14:34.885Z,4.89
2023-02-17T01:18:24.000Z,4.85
2023-02-17T01:22:16.445Z,4.85
2023-02-17T01:26:05.886Z,5.05
2023-02-17T01:29:55.380Z,5.27
2023-02-17T01:33:44.492Z,5.40
2023-02-17T01:37:33.648Z,5.44
2023-02-17T01:41:28.553Z,5.39
2023-02-17T01:45:17.565Z,5.31
2023-02-17T01:49:09.401Z,5.26
2023-02-17T02:01:12.254Z,5.06
2023-02-17T02:05:01.191Z,5.07
2023-02-17T02:20:43.610Z,5.20
2023-02-17T02:24:48.434Z,5.29
2023-02-17T02:28:43.769Z,5.43
2023-02-17T02:40:48.082Z,5.84
2023-02-17T02:44:37.177Z,5.93
2023-02-17T02:48:35.349Z,6.01
2023-02-17T02:52:30.323Z,6.10
2023-02-17T02:56:29.393Z,6.19
2023-02-17T03:00:17.661Z,6.24
2023-02-17T03:16:30.019Z,6.37
2023-02-17T03:20:17.719Z,6.43
2023-02-17T03:24:05.233Z,6.48
2023-02-17T03:27:53.152Z,6.54
2023-02-17T03:31:40.972Z,6.61
2023-02-17T03:35:28.878Z,6.66
2023-02-17T03:39:09.101Z,6.70
2023-02-17T03:42:57.821Z,6.75
2023-02-17T03:46:45.332Z,6.79
2023-02-17T03:50:33.407Z,6.85
2023-02-17T03:54:20.702Z,6.93
2023-02-17T04:06:29.464Z,7.10
2023-02-17T04:10:16.854Z,7.11
2023-02-17T04:14:04.435Z,7.13
2023-02-17T04:17:52.070Z,7.17
2023-02-17T04:21:39.892Z,7.20
2023-02-17T04:25:27.543Z,7.21
2023-02-17T04:33:12.074Z,7.22
2023-02-17T04:37:01.005Z,7.22
2023-02-17T04:40:50.104Z,7.23
2023-02-17T04:44:39.519Z,7.26
2023-02-17T04:48:28.937Z,7.29
2023-02-17T04:52:17.905Z,7.34
2023-02-17T04:56:07.448Z,7.39
2023-02-17T04:59:57.287Z,7.43
2023-02-17T05:03:39.033Z,7.45
2023-02-17T05:07:28.361Z,7.44
2023-02-17T05:11:17.361Z,7.44
2023-02-17T05:15:07.326Z,7.43
2023-02-17T05:30:33.933Z,7.06
2023-02-17T05:34:22.910Z,7.05
2023-02-17T05:38:12.205Z,7.04
2023-02-17T05:42:01.175Z,7.05
2023-02-17T05:45:41.631Z,7.08
2023-02-17T05:49:13.342Z,7.11
2023-02-17T05:52:45.658Z,7.14
2023-02-17T05:55:57.580Z,7.18
2023-02-17T05:58:56.670Z,7.23
2023-02-17T06:01:47.816Z,7.28
2023-02-17T06:05:15.619Z,7.32
2023-02-17T06:08:49.357Z,7.36
2023-02-17T06:12:22.221Z,7.40
2023-02-17T06:15:49.848Z,7.47
2023-02-17T06:18:51.924Z,7.53
2023-02-17T06:22:02.888Z,7.56
2023-02-17T06:25:39.505Z,7.58
2023-02-17T06:29:27.923Z,7.60
2023-02-17T06:32:57.444Z,7.63
2023-02-17T06:36:27.535Z,7.68
2023-02-17T06:40:16.573Z,7.78
2023-02-17T06:43:54.449Z,7.85
2023-02-17T06:47:29.360Z,7.95
2023-02-17T06:51:00.158Z,8.06
2023-02-17T06:54:52.265Z,8.16
2023-02-17T06:58:32.571Z,8.23
2023-02-17T07:02:18.727Z,8.31
2023-02-17T07:06:02.615Z,8.40
2023-02-17T07:09:49.624Z,8.47
2023-02-17T07:13:20.480Z,8.58
2023-02-17T07:17:08.268Z,8.69
2023-02-17T07:20:47.324Z,8.81
2023-02-17T07:24:05.074Z,8.89
2023-02-17T07:26:41.544Z,8.95
2023-02-17T07:29:38.032Z,8.98
2023-02-17T07:32:49.313Z,9.01
2023-02-17T07:35:56.251Z,9.06
2023-02-17T07:39:02.667Z,9.10
2023-02-17T07:42:07.018Z,9.14
2023-02-17T07:45:25.909Z,9.20
2023-02-17T07:48:43.561Z,9.25
2023-02-17T07:52:16.272Z,9.30
2023-02-17T07:55:42.739Z,9.31
2023-02-17T07:58:57.532Z,9.33
2023-02-17T08:02:39.159Z,9.32
2023-02-17T08:06:20.124Z,9.32
2023-02-17T08:09:52.392Z,9.35
2023-02-17T08:13:20.808Z,9.36
2023-02-17T08:16:42.938Z,9.34
2023-02-17T08:20:15.622Z,9.32
2023-02-17T08:23:40.058Z,9.28
2023-02-17T08:27:23.108Z,9.23
2023-02-17T08:31:12.465Z,9.19
2023-02-17T08:34:56.166Z,9.15
2023-02-17T08:38:21.880Z,9.13
2023-02-17T08:45:27.357Z,9.00
2023-02-17T08:48:54.909Z,8.83
2023-02-17T08:52:35.583Z,8.62
2023-02-17T08:56:06.454Z,8.43
2023-02-17T08:59:35.497Z,8.25
2023-02-17T09:02:45.882Z,8.07
2023-02-17T09:05:20.231Z,7.97
2023-02-17T09:08:11.209Z,7.89
2023-02-17T09:10:40.216Z,7.82
2023-02-17T09:13:31.841Z,7.80
2023-02-17T09:16:26.494Z,7.76
2023-02-17T09:19:18.282Z,7.76
2023-02-17T09:22:37.078Z,7.78
2023-02-17T09:25:37.178Z,7.85
2023-02-17T09:28:58.048Z,7.94
2023-02-17T09:32:08.276Z,7.98
2023-02-17T09:35:01.446Z,8.01
2023-02-17T09:38:23.510Z,8.03
2023-02-17T09:41:58.592Z,8.04
2023-02-17T09:45:08.598Z,8.04
2023-02-17T09:48:20.322Z,8.04
2023-02-17T09:51:15.354Z,8.01
2023-02-17T09:54:01.759Z,7.95
2023-02-17T09:57:23.053Z,7.86
2023-02-17T10:01:04.573Z,7.78
2023-02-17T10:04:19.022Z,7.72
2023-02-17T10:08:11.077Z,7.69
2023-02-17T10:12:02.664Z,7.65
2023-02-17T10:15:45.498Z,7.62
2023-02-17T10:19:40.670Z,7.58
2023-02-17T10:23:23.790Z,7.53
2023-02-17T10:31:23.212Z,7.37
2023-02-17T10:35:18.147Z,7.30
2023-02-17T10:39:00.770Z,7.26
2023-02-17T10:42:49.948Z,7.19
2023-02-17T11:11:21.794Z,6.76
2023-02-17T11:15:04.089Z,6.81
2023-02-17T11:18:29.358Z,6.85
2023-02-17T11:21:54.158Z,6.88
2023-02-17T11:50:50.789Z,6.86
2023-02-17T11:54:33.742Z,6.87
2023-02-17T11:58:21.183Z,6.90
2023-02-17T12:02:25.299Z,6.95
2023-02-17T12:06:21.364Z,7.01
2023-02-17T12:22:12.887Z,7.30
2023-02-17T12:26:07.203Z,7.37
2023-02-17T12:29:41.805Z,7.46
2023-02-17T12:32:51.151Z,7.55
2023-02-17T12:36:08.926Z,7.63
2023-02-17T12:39:47.649Z,7.70
2023-02-17T12:43:18.985Z,7.75
2023-02-17T12:45:58.563Z,7.77
2023-02-17T12:49:32.880Z,7.81
2023-02-17T12:53:02.441Z,7.85
2023-02-17T12:56:38.702Z,7.88
2023-02-17T13:12:48.847Z,8.06
2023-02-17T13:16:16.350Z,8.04
2023-02-17T13:20:09.789Z,8.04
2023-02-17T13:24:03.715Z,8.05
2023-02-17T13:30:47.564Z,8.12
2023-02-17T13:33:43.661Z,8.14
2023-02-17T13:37:12.692Z,8.15
2023-02-17T13:40:44.034Z,8.19
2023-02-17T13:51:22.581Z,8.33
2023-02-17T13:55:07.762Z,8.36
2023-02-17T13:58:11.301Z,8.39
2023-02-17T14:01:45.081Z,8.38
2023-02-17T14:05:17.091Z,8.37
2023-02-17T14:09:00.125Z,8.35
2023-02-17T14:12:15.360Z,8.33
2023-02-17T14:15:55.349Z,8.29
2023-02-17T14:19:44.370Z,8.23
2023-02-17T14:23:05.592Z,8.17
2023-02-17T14:26:51.055Z,8.11
2023-02-17T14:30:40.633Z,8.06
2023-02-17T14:34:18.845Z,7.99
2023-02-17T14:38:08.311Z,7.95
2023-02-17T14:41:13.795Z,7.89
2023-02-17T14:44:46.753Z,7.87
2023-02-17T14:48:30.074Z,7.84
2023-02-17T14:52:12.519Z,7.83
2023-02-17T15:25:18.876Z,8.16
2023-02-17T15:28:48.998Z,8.16
2023-02-17T15:32:26.831Z,8.17
2023-02-17T15:35:50.555Z,8.22
2023-02-17T15:39:28.032Z,8.27
2023-02-17T15:43:15.740Z,8.30
2023-02-17T15:46:52.027Z,8.36
2023-02-17T15:50:29.632Z,8.41
2023-02-17T15:53:56.970Z,8.44
2023-02-17T15:57:07.999Z,8.49
2023-02-17T16:00:57.244Z,8.51
2023-02-17T16:12:26.321Z,8.63
2023-02-17T16:16:15.373Z,8.66
2023-02-17T16:20:04.630Z,8.68
2023-02-17T16:36:04.657Z,8.32
2023-02-17T16:39:45.144Z,8.21
2023-02-17T16:43:32.650Z,8.12
2023-02-17T16:47:20.217Z,8.07
2023-02-17T16:51:10.864Z,8.03
2023-02-17T16:54:54.337Z,8.01
2023-02-17T16:58:42.151Z,8.00
2023-02-17T17:14:05.491Z,8.20
2023-02-17T17:17:53.672Z,8.30
2023-02-17T17:21:20.918Z,8.38
2023-02-17T17:25:10.069Z,8.47
2023-02-17T17:28:59.163Z,8.56
2023-02-17T17:32:49.010Z,8.62
2023-02-17T17:36:38.031Z,8.68
2023-02-17T17:40:27.349Z,8.78
2023-02-17T17:44:16.513Z,8.90
2023-02-17T17:47:48.390Z,9.00
2023-02-17T17:51:09.152Z,9.12
2023-02-17T17:54:43.539Z,9.24
2023-02-17T17:58:13.150Z,9.34
2023-02-17T18:02:02.167Z,9.43
2023-02-17T18:05:50.797Z,9.51
2023-02-17T18:09:42.483Z,9.58
2023-02-17T18:13:32.955Z,9.67
2023-02-17T18:17:22.041Z,9.76
2023-02-17T18:21:00.241Z,9.81
2023-02-17T18:43:07.473Z,9.70
2023-02-17T18:46:38.107Z,9.64
2023-02-17T18:50:26.208Z,9.62
2023-02-17T18:54:15.217Z,9.62
2023-02-17T18:58:04.534Z,9.66
2023-02-17T19:01:56.211Z,9.72
2023-02-17T19:05:44.431Z,9.81
2023-02-17T19:09:32.780Z,9.87
2023-02-17T19:13:21.911Z,9.88
2023-02-17T19:17:10.976Z,9.91
2023-02-17T19:21:00.322Z,9.95
2023-02-17T19:32:44.134Z,10.08
2023-02-17T19:36:33.653Z,10.10
2023-02-17T19:40:23.283Z,10.12
2023-02-17T19:44:12.882Z,10.13
2023-02-17T19:48:02.041Z,10.13
2023-02-17T19:51:49.788Z,10.14
2023-02-17T19:55:38.989Z,10.16
2023-02-17T19:59:28.219Z,10.15
2023-02-17T20:15:06.200Z,10.16
2023-02-17T20:18:55.405Z,10.19
2023-02-17T20:22:44.919Z,10.23
2023-02-17T20:26:34.317Z,10.26
2023-02-17T20:30:23.333Z,10.32
2023-02-17T20:34:12.297Z,10.36
2023-02-17T20:38:02.011Z,10.37
2023-02-17T20:41:51.140Z,10.38
2023-02-17T20:46:12.331Z,10.36
2023-02-17T20:50:01.078Z,10.38
2023-02-17T20:53:51.074Z,10.39
2023-02-17T20:57:19.916Z,10.40
2023-02-17T21:01:08.876Z,10.42
2023-02-17T21:04:58.209Z,10.44
2023-02-17T21:08:47.917Z,10.46
2023-02-17T21:12:37.108Z,10.47
2023-02-17T21:16:26.566Z,10.45
2023-02-17T21:20:05.590Z,10.46
2023-02-17T21:23:53.760Z,10.49
2023-02-17T21:27:42.743Z,10.53
2023-02-17T21:31:32.286Z,10.58
2023-02-17T21:39:08.789Z,10.63
2023-02-17T21:42:55.276Z,10.65
2023-02-17T22:02:03.649Z,10.76
2023-02-17T22:05:51.414Z,10.80
2023-02-17T22:09:38.939Z,10.81
2023-02-17T22:13:26.503Z,10.83
2023-02-17T22:17:14.315Z,10.89
2023-02-17T22:21:02.656Z,10.93
2023-02-17T22:37:01.469Z,10.96
2023-02-17T22:40:49.276Z,10.94
2023-02-17T22:44:36.757Z,10.93
2023-02-17T22:48:24.360Z,10.95
2023-02-17T22:52:16.246Z,10.96
2023-02-17T22:56:04.247Z,10.97
2023-02-17T23:00:22.655Z,10.97
2023-02-17T23:04:12.048Z,10.96
2023-02-17T23:08:01.129Z,10.96
2023-02-17T23:11:48.464Z,10.93
2023-02-17T23:15:37.460Z,10.87
2023-02-17T23:19:26.496Z,10.82
2023-02-17T23:22:56.291Z,10.80
2023-02-17T23:46:12.101Z,10.64
2023-02-17T23:50:01.409Z,10.59
2023-02-17T23:53:50.691Z,10.57
2023-02-17T23:57:39.574Z,10.57
